createdAt,value
2022-08-31T00:01:12.545Z,99012.05
2022-08-31T00:02:33.062Z,99009.95
2022-08-31T00:03:53.557Z,99011.14
2022-08-31T00:04:57.355Z,99013.70
2022-08-31T00:06:02.440Z,99012.59
2022-08-31T00:07:04.433Z,99012.13
2022-08-31T00:08:07.133Z,99013.46
2022-08-31T00:09:08.846Z,99011.41
2022-08-31T00:10:18.398Z,99015.20
2022-08-31T00:11:28.131Z,99012.00
2022-08-31T00:12:31.084Z,99008.27
2022-08-31T00:13:32.761Z,99010.10
2022-08-31T00:14:34.970Z,99009.33
2022-08-31T00:15:36.771Z,99010.59
2022-08-31T00:16:40.882Z,99013.22
2022-08-31T00:17:43.004Z,99012.72
2022-08-31T00:18:44.969Z,99013.01
2022-08-31T00:19:46.601Z,99015.41
2022-08-31T00:20:49.233Z,99015.67
2022-08-31T00:21:51.050Z,99014.10
2022-08-31T00:22:53.281Z,99014.69
2022-08-31T00:23:59.051Z,99012.24
2022-08-31T00:25:00.917Z,99014.70
2022-08-31T00:26:02.597Z,99012.75
2022-08-31T00:27:04.545Z,99014.99
2022-08-31T00:28:08.295Z,99014.23
2022-08-31T00:29:11.290Z,99012.34
2022-08-31T00:30:13.869Z,99012.95
2022-08-31T00:31:15.939Z,99015.95
2022-08-31T00:32:17.681Z,99018.15
2022-08-31T00:33:24.237Z,99016.72
2022-08-31T00:34:27.919Z,99017.06
2022-08-31T00:35:32.145Z,99013.58
2022-08-31T00:36:34.356Z,99020.38
2022-08-31T00:37:36.314Z,99021.67
2022-08-31T00:38:40.313Z,99020.77
2022-08-31T00:39:41.965Z,99022.11
2022-08-31T00:40:46.489Z,99021.85
2022-08-31T00:41:48.258Z,99022.64
2022-08-31T00:42:50.120Z,99028.94
2022-08-31T00:43:57.933Z,99025.42
2022-08-31T00:44:59.609Z,99029.20
2022-08-31T00:46:01.671Z,99029.67
2022-08-31T00:47:03.443Z,99030.23
2022-08-31T00:48:05.161Z,99031.06
2022-08-31T00:49:11.614Z,99031.27
2022-08-31T00:50:16.938Z,99027.88
2022-08-31T00:51:19.201Z,99027.51
2022-08-31T00:52:27.552Z,99025.48
2022-08-31T00:53:30.514Z,99024.70
2022-08-31T00:54:38.995Z,99023.74
2022-08-31T00:55:40.724Z,99028.07
2022-08-31T00:56:45.858Z,99025.41
2022-08-31T00:57:53.136Z,99026.31
2022-08-31T00:58:55.135Z,99028.56
2022-08-31T00:59:59.292Z,99030.00
2022-08-31T01:01:01.133Z,99030.54
2022-08-31T01:02:04.454Z,99031.55
2022-08-31T01:03:08.224Z,99032.49
2022-08-31T01:04:10.173Z,99031.13
2022-08-31T01:05:13.326Z,99029.07
2022-08-31T01:06:18.401Z,99031.27
2022-08-31T01:07:20.106Z,99029.27
2022-08-31T01:08:30.574Z,99033.09
2022-08-31T01:09:36.422Z,99031.36
2022-08-31T01:10:43.836Z,99030.20
2022-08-31T01:11:46.205Z,99030.55
2022-08-31T01:12:52.681Z,99030.88
2022-08-31T01:13:55.600Z,99027.02
2022-08-31T01:14:59.041Z,99026.44
2022-08-31T01:16:07.617Z,99022.80
2022-08-31T01:17:09.410Z,99020.64
2022-08-31T01:18:12.465Z,99018.89
2022-08-31T01:19:43.813Z,99019.27
2022-08-31T01:21:04.350Z,99017.13
2022-08-31T01:22:28.409Z,99016.25
2022-08-31T01:23:38.925Z,99016.60
2022-08-31T01:24:46.379Z,99017.70
2022-08-31T01:25:51.180Z,99018.87
2022-08-31T01:26:55.854Z,99014.95
2022-08-31T01:28:02.445Z,99013.60
2022-08-31T01:29:06.830Z,99013.30
2022-08-31T01:30:11.840Z,99015.00
2022-08-31T01:31:25.752Z,99012.90
2022-08-31T01:32:29.521Z,99014.56
2022-08-31T01:33:34.614Z,99016.31
2022-08-31T01:34:36.333Z,99014.45
2022-08-31T01:35:43.666Z,99017.41
2022-08-31T01:36:48.416Z,99015.77
2022-08-31T01:37:51.335Z,99016.19
2022-08-31T01:38:53.537Z,99019.52
2022-08-31T01:39:55.730Z,99018.20
2022-08-31T01:41:01.981Z,99020.34
2022-08-31T01:42:04.216Z,99017.91
2022-08-31T01:43:05.904Z,99019.96
2022-08-31T01:44:08.562Z,99024.98
2022-08-31T01:45:11.275Z,99026.77
2022-08-31T01:46:14.094Z,99025.51
2022-08-31T01:47:15.855Z,99030.77
2022-08-31T01:48:18.057Z,99028.46
2022-08-31T01:49:23.492Z,99023.88
2022-08-31T01:50:25.368Z,99023.35
2022-08-31T01:51:27.804Z,99027.85
2022-08-31T01:52:29.591Z,99027.38
2022-08-31T01:53:32.105Z,99027.29
2022-08-31T01:54:34.033Z,99024.21
2022-08-31T01:55:36.714Z,99024.33
2022-08-31T01:56:42.266Z,99020.71
2022-08-31T01:57:47.175Z,99025.33
2022-08-31T01:59:10.960Z,99024.38
2022-08-31T02:00:32.004Z,99025.11
2022-08-31T02:01:37.227Z,99023.17
2022-08-31T02:02:39.036Z,99023.15
2022-08-31T02:03:43.720Z,99023.18
2022-08-31T02:04:45.384Z,99026.45
2022-08-31T02:05:47.050Z,99027.98
2022-08-31T02:06:52.994Z,99022.88
2022-08-31T02:07:56.184Z,99023.34
2022-08-31T02:08:58.600Z,99023.41
2022-08-31T02:10:00.343Z,99022.45
2022-08-31T02:11:02.409Z,99020.51
2022-08-31T02:12:04.492Z,99017.36
2022-08-31T02:13:07.989Z,99021.50
2022-08-31T02:14:11.001Z,99021.25
2022-08-31T02:15:12.842Z,99018.04
2022-08-31T02:16:15.806Z,99022.59
2022-08-31T02:17:18.335Z,99022.45
2022-08-31T02:18:20.354Z,99017.46
2022-08-31T02:19:24.451Z,99018.02
2022-08-31T02:20:26.383Z,99018.58
2022-08-31T02:21:28.289Z,99017.29
2022-08-31T02:22:29.958Z,99018.92
2022-08-31T02:23:31.715Z,99017.38
2022-08-31T02:24:33.462Z,99014.99
2022-08-31T02:25:35.435Z,99016.27
2022-08-31T02:26:38.470Z,99013.48
2022-08-31T02:27:40.592Z,99012.40
2022-08-31T02:28:42.538Z,99014.80
2022-08-31T02:29:45.171Z,99012.33
2022-08-31T02:30:47.166Z,99017.54
2022-08-31T02:31:48.917Z,99014.95
2022-08-31T02:32:51.733Z,99015.27
2022-08-31T02:33:53.388Z,99011.40
2022-08-31T02:34:55.581Z,99014.11
2022-08-31T02:35:59.881Z,99016.08
2022-08-31T02:37:01.921Z,99014.67
2022-08-31T02:38:05.547Z,99016.69
2022-08-31T02:39:07.682Z,99016.05
2022-08-31T02:40:12.366Z,99016.39
2022-08-31T02:41:17.601Z,99013.10
2022-08-31T02:42:19.402Z,99014.02
2022-08-31T02:43:24.721Z,99015.14
2022-08-31T02:44:28.350Z,99012.36
2022-08-31T02:45:30.100Z,99014.23
2022-08-31T02:46:37.763Z,99012.17
2022-08-31T02:47:58.436Z,99011.53
2022-08-31T02:49:04.349Z,99010.52
2022-08-31T02:50:07.609Z,99010.31
2022-08-31T02:51:10.915Z,99014.09
2022-08-31T02:52:12.580Z,99012.86
2022-08-31T02:53:17.800Z,99013.25
2022-08-31T02:54:20.285Z,99013.54
2022-08-31T02:55:23.036Z,99013.11
2022-08-31T02:56:25.960Z,99009.42
2022-08-31T02:57:27.981Z,99008.67
2022-08-31T02:58:29.787Z,99006.17
2022-08-31T02:59:31.749Z,99007.92
2022-08-31T03:00:34.474Z,99010.58
2022-08-31T03:01:37.414Z,99008.11
2022-08-31T03:02:41.134Z,99008.16
2022-08-31T03:03:46.214Z,99006.60
2022-08-31T03:04:48.874Z,99005.84
2022-08-31T03:05:51.557Z,99007.25
2022-08-31T03:06:53.406Z,99007.70
2022-08-31T03:07:55.670Z,99009.97
2022-08-31T03:09:00.180Z,99007.54
2022-08-31T03:10:02.521Z,99006.41
2022-08-31T03:11:04.237Z,99007.39
2022-08-31T03:12:06.469Z,99006.52
2022-08-31T03:13:08.216Z,99007.77
2022-08-31T03:14:10.242Z,99009.34
2022-08-31T03:15:12.105Z,99009.30
2022-08-31T03:16:15.201Z,99011.07
2022-08-31T03:17:17.357Z,99009.08
2022-08-31T03:18:19.186Z,99012.10
2022-08-31T03:19:21.976Z,99013.89
2022-08-31T03:20:26.074Z,99012.27
2022-08-31T03:21:28.189Z,99015.50
2022-08-31T03:22:31.111Z,99011.32
2022-08-31T03:23:33.116Z,99015.00
2022-08-31T03:24:34.893Z,99015.71
2022-08-31T03:25:36.569Z,99016.73
2022-08-31T03:26:41.382Z,99018.31
2022-08-31T03:27:44.616Z,99017.56
2022-08-31T03:28:46.299Z,99015.77
2022-08-31T03:30:17.220Z,99018.69
2022-08-31T03:31:24.635Z,99022.92
2022-08-31T03:32:27.503Z,99021.35
2022-08-31T03:33:29.440Z,99023.90
2022-08-31T03:34:31.238Z,99024.55
2022-08-31T03:35:33.170Z,99024.11
2022-08-31T03:36:34.878Z,99026.77
2022-08-31T03:37:37.206Z,99024.05
2022-08-31T03:38:39.595Z,99026.83
2022-08-31T03:39:41.690Z,99027.38
2022-08-31T03:40:44.642Z,99026.98
2022-08-31T03:41:46.475Z,99024.35
2022-08-31T03:42:48.482Z,99027.88
2022-08-31T03:43:51.958Z,99027.71
2022-08-31T03:44:53.741Z,99025.71
2022-08-31T03:45:59.984Z,99024.25
2022-08-31T03:47:01.736Z,99023.56
2022-08-31T03:48:11.427Z,99022.64
2022-08-31T03:49:14.504Z,99024.64
2022-08-31T03:50:22.571Z,99020.31
2022-08-31T03:51:45.511Z,99022.52
2022-08-31T03:52:48.091Z,99020.08
2022-08-31T03:53:53.430Z,99021.77
2022-08-31T03:54:55.496Z,99021.66
2022-08-31T03:56:01.917Z,99020.58
2022-08-31T03:57:06.214Z,99017.48
2022-08-31T03:58:08.109Z,99022.15
2022-08-31T03:59:10.033Z,99021.29
2022-08-31T04:00:31.256Z,99017.86
2022-08-31T04:01:37.442Z,99020.04
2022-08-31T04:03:01.499Z,99022.09
2022-08-31T04:04:06.692Z,99020.03
2022-08-31T04:05:57.965Z,99024.27
2022-08-31T04:07:28.256Z,99023.85
2022-08-31T04:09:26.048Z,99024.71
2022-08-31T04:10:58.111Z,99023.74
2022-08-31T04:12:09.383Z,99021.23
2022-08-31T04:13:30.521Z,99019.34
2022-08-31T04:15:25.124Z,99019.67
2022-08-31T04:17:00.726Z,99015.44
2022-08-31T04:18:23.416Z,99015.76
2022-08-31T04:19:25.126Z,99018.09
2022-08-31T04:20:39.863Z,99023.56
2022-08-31T04:21:44.307Z,99024.16
2022-08-31T04:22:46.737Z,99028.77
2022-08-31T04:24:04.414Z,99028.77
2022-08-31T04:25:07.081Z,99027.84
2022-08-31T04:26:21.829Z,99028.27
2022-08-31T04:27:23.523Z,99031.36
2022-08-31T04:28:25.298Z,99030.45
2022-08-31T04:29:27.412Z,99034.98
2022-08-31T04:30:29.139Z,99030.42
2022-08-31T04:31:31.841Z,99036.83
2022-08-31T04:32:34.490Z,99035.47
2022-08-31T04:33:37.711Z,99038.56
2022-08-31T04:34:39.437Z,99037.10
2022-08-31T04:35:42.962Z,99037.09
2022-08-31T04:36:45.898Z,99036.98
2022-08-31T04:37:48.157Z,99040.06
2022-08-31T04:38:53.763Z,99037.35
2022-08-31T04:39:59.082Z,99039.74
2022-08-31T04:41:12.538Z,99040.94
2022-08-31T04:42:14.769Z,99042.84
2022-08-31T04:43:16.740Z,99047.00
2022-08-31T04:44:20.231Z,99044.48
2022-08-31T04:45:26.252Z,99049.21
2022-08-31T04:46:29.530Z,99045.19
2022-08-31T04:47:31.313Z,99048.20
2022-08-31T04:48:33.854Z,99048.96
2022-08-31T04:49:35.609Z,99047.57
2022-08-31T04:50:41.867Z,99050.08
2022-08-31T04:51:44.904Z,99048.88
2022-08-31T04:53:03.210Z,99051.60
2022-08-31T04:54:14.017Z,99052.46
2022-08-31T04:55:17.044Z,99051.55
2022-08-31T04:56:22.545Z,99050.78
2022-08-31T04:57:24.253Z,99052.41
2022-08-31T04:58:25.958Z,99047.27
2022-08-31T04:59:27.866Z,99049.58
2022-08-31T05:01:15.652Z,99046.36
2022-08-31T05:02:37.112Z,99048.10
2022-08-31T05:03:51.145Z,99047.39
2022-08-31T05:04:53.829Z,99048.27
2022-08-31T05:05:56.867Z,99046.73
2022-08-31T05:06:59.152Z,99045.86
2022-08-31T05:08:00.974Z,99044.88
2022-08-31T05:09:07.037Z,99046.05
2022-08-31T05:10:09.185Z,99044.15
2022-08-31T05:11:13.084Z,99047.94
2022-08-31T05:12:14.841Z,99045.41
2022-08-31T05:13:16.931Z,99049.26
2022-08-31T05:14:19.589Z,99051.23
2022-08-31T05:15:25.170Z,99051.48
2022-08-31T05:16:30.443Z,99057.05
2022-08-31T05:17:32.992Z,99053.66
2022-08-31T05:18:35.053Z,99053.29
2022-08-31T05:19:40.972Z,99053.04
2022-08-31T05:20:43.013Z,99056.21
2022-08-31T05:21:46.953Z,99054.25
2022-08-31T05:22:49.147Z,99056.12
2022-08-31T05:23:52.058Z,99057.34
2022-08-31T05:24:53.715Z,99060.95
2022-08-31T05:25:55.377Z,99061.56
2022-08-31T05:26:57.846Z,99060.11
2022-08-31T05:27:59.702Z,99061.55
2022-08-31T05:29:06.330Z,99061.89
2022-08-31T05:30:09.566Z,99064.30
2022-08-31T05:31:21.987Z,99065.02
2022-08-31T05:32:24.019Z,99065.42
2022-08-31T05:33:29.820Z,99068.30
2022-08-31T05:34:31.774Z,99066.20
2022-08-31T05:35:35.382Z,99065.99
2022-08-31T05:36:37.112Z,99062.23
2022-08-31T05:37:39.418Z,99065.23
2022-08-31T05:38:42.197Z,99066.83
2022-08-31T05:39:45.697Z,99067.78
2022-08-31T05:40:56.237Z,99072.90
2022-08-31T05:41:58.277Z,99074.54
2022-08-31T05:42:59.946Z,99076.52
2022-08-31T05:44:05.678Z,99072.45
2022-08-31T05:45:08.691Z,99073.16
2022-08-31T05:46:13.615Z,99075.73
2022-08-31T05:47:15.455Z,99077.02
2022-08-31T05:48:18.014Z,99076.31
2022-08-31T05:49:19.845Z,99074.29
2022-08-31T05:50:22.022Z,99076.13
2022-08-31T05:51:24.629Z,99074.59
2022-08-31T05:52:26.713Z,99075.95
2022-08-31T05:53:29.253Z,99077.77
2022-08-31T05:54:34.733Z,99077.23
2022-08-31T05:55:36.471Z,99077.38
2022-08-31T05:56:41.645Z,99078.16
2022-08-31T05:57:45.114Z,99077.70
2022-08-31T05:58:48.948Z,99075.95
2022-08-31T05:59:50.823Z,99080.27
2022-08-31T06:00:52.554Z,99076.95
2022-08-31T06:02:44.017Z,99083.45
2022-08-31T06:03:49.454Z,99085.09
2022-08-31T06:04:52.068Z,99087.63
2022-08-31T06:05:55.340Z,99088.31
2022-08-31T06:06:58.113Z,99089.41
2022-08-31T06:08:03.384Z,99088.95
2022-08-31T06:09:08.745Z,99089.56
2022-08-31T06:10:11.765Z,99087.68
2022-08-31T06:11:17.631Z,99087.45
2022-08-31T06:12:20.547Z,99091.37
2022-08-31T06:13:22.330Z,99092.13
2022-08-31T06:14:24.013Z,99091.86
2022-08-31T06:15:27.117Z,99092.95
2022-08-31T06:16:30.434Z,99094.48
2022-08-31T06:17:34.036Z,99091.03
2022-08-31T06:18:38.590Z,99093.75
2022-08-31T06:19:40.445Z,99094.52
2022-08-31T06:20:42.151Z,99096.59
2022-08-31T06:21:50.385Z,99091.27
2022-08-31T06:22:57.166Z,99097.86
2022-08-31T06:24:12.887Z,99097.14
2022-08-31T06:25:19.217Z,99096.73
2022-08-31T06:26:22.881Z,99097.00
2022-08-31T06:27:24.918Z,99096.62
2022-08-31T06:28:31.387Z,99091.95
2022-08-31T06:29:33.740Z,99093.29
2022-08-31T06:30:52.954Z,99092.52
2022-08-31T06:31:57.954Z,99092.29
2022-08-31T06:32:59.819Z,99097.16
2022-08-31T06:34:11.281Z,99091.98
2022-08-31T06:35:25.090Z,99092.21
2022-08-31T06:36:40.507Z,99093.77
2022-08-31T06:37:56.793Z,99093.11
2022-08-31T06:39:45.107Z,99094.40
2022-08-31T06:41:12.423Z,99099.27
2022-08-31T06:42:42.755Z,99104.46
2022-08-31T06:44:03.788Z,99103.37
2022-08-31T06:45:58.014Z,99104.91
2022-08-31T06:47:23.481Z,99109.27
2022-08-31T06:48:26.136Z,99105.91
2022-08-31T06:49:28.137Z,99106.95
2022-08-31T06:50:29.951Z,99105.63
2022-08-31T06:51:36.610Z,99104.50
2022-08-31T06:52:39.078Z,99102.81
2022-08-31T06:53:54.847Z,99107.55
2022-08-31T06:55:37.350Z,99108.95
2022-08-31T06:56:58.964Z,99109.33
2022-08-31T06:58:23.768Z,99108.33
2022-08-31T07:00:18.347Z,99108.17
2022-08-31T07:01:39.761Z,99108.98
2022-08-31T07:02:46.514Z,99107.65
2022-08-31T07:04:01.784Z,99108.50
2022-08-31T07:05:04.173Z,99116.04
2022-08-31T07:06:16.853Z,99114.03
2022-08-31T07:07:18.849Z,99115.35
2022-08-31T07:08:21.385Z,99116.25
2022-08-31T07:09:23.766Z,99118.79
2022-08-31T07:10:25.563Z,99118.99
2022-08-31T07:11:33.276Z,99118.55
2022-08-31T07:12:34.972Z,99117.99
2022-08-31T07:13:36.773Z,99120.86
2022-08-31T07:14:38.556Z,99118.66
2022-08-31T07:15:41.197Z,99117.95
2022-08-31T07:16:44.760Z,99119.52
2022-08-31T07:17:46.793Z,99120.20
2022-08-31T07:18:49.772Z,99118.24
2022-08-31T07:19:51.931Z,99118.69
2022-08-31T07:20:54.386Z,99119.27
2022-08-31T07:22:01.434Z,99119.96
2022-08-31T07:23:03.902Z,99115.99
2022-08-31T07:24:16.163Z,99119.21
2022-08-31T07:25:18.297Z,99120.43
2022-08-31T07:26:27.809Z,99121.91
2022-08-31T07:27:30.223Z,99123.52
2022-08-31T07:28:34.240Z,99124.25
2022-08-31T07:29:40.661Z,99125.36
2022-08-31T07:30:46.174Z,99126.83
2022-08-31T07:31:52.431Z,99128.05
2022-08-31T07:32:56.335Z,99124.97
2022-08-31T07:33:59.070Z,99125.41
2022-08-31T07:35:01.829Z,99127.33
2022-08-31T07:36:09.582Z,99129.40
2022-08-31T07:37:46.566Z,99131.64
2022-08-31T07:39:07.307Z,99128.83
2022-08-31T07:40:30.548Z,99129.40
2022-08-31T07:42:15.069Z,99126.24
2022-08-31T07:43:16.800Z,99129.38
2022-08-31T07:44:21.701Z,99130.23
2022-08-31T07:45:27.933Z,99131.33
2022-08-31T07:46:33.742Z,99135.30
2022-08-31T07:47:45.474Z,99139.09
2022-08-31T07:48:47.632Z,99137.86
2022-08-31T07:50:07.920Z,99136.63
2022-08-31T07:51:23.474Z,99138.13
2022-08-31T07:52:54.685Z,99132.59
2022-08-31T07:54:22.301Z,99132.06
2022-08-31T07:55:55.460Z,99129.64
2022-08-31T07:57:08.155Z,99128.98
2022-08-31T07:58:13.453Z,99130.70
2022-08-31T07:59:15.401Z,99128.69
2022-08-31T08:00:23.267Z,99129.61
2022-08-31T08:01:25.785Z,99127.93
2022-08-31T08:02:29.064Z,99126.09
2022-08-31T08:03:30.967Z,99131.80
2022-08-31T08:04:53.359Z,99130.20
2022-08-31T08:06:01.582Z,99130.05
2022-08-31T08:07:17.152Z,99132.65
2022-08-31T08:08:22.888Z,99133.92
2022-08-31T08:09:43.760Z,99132.54
2022-08-31T08:11:18.469Z,99136.35
2022-08-31T08:12:29.216Z,99140.61
2022-08-31T08:14:17.580Z,99140.14
2022-08-31T08:15:36.202Z,99143.38
2022-08-31T08:17:37.267Z,99142.08
2022-08-31T08:18:42.110Z,99145.46
2022-08-31T08:19:44.262Z,99147.27
2022-08-31T08:20:46.031Z,99145.40
2022-08-31T08:21:48.396Z,99147.75
2022-08-31T08:22:56.362Z,99146.79
2022-08-31T08:24:06.752Z,99146.83
2022-08-31T08:25:40.613Z,99147.37
2022-08-31T08:26:54.444Z,99155.80
2022-08-31T08:28:49.529Z,99149.31
2022-08-31T08:29:51.584Z,99146.14
2022-08-31T08:31:02.925Z,99154.02
2022-08-31T08:32:08.696Z,99154.83
2022-08-31T08:33:10.549Z,99154.76
2022-08-31T08:34:15.112Z,99158.30
2022-08-31T08:35:16.892Z,99153.38
2022-08-31T08:36:20.022Z,99156.83
2022-08-31T08:37:35.860Z,99158.30
2022-08-31T08:38:47.277Z,99162.77
2022-08-31T08:39:49.715Z,99162.53
2022-08-31T08:40:55.651Z,99159.10
2022-08-31T08:41:57.902Z,99158.55
2022-08-31T08:43:02.335Z,99157.08
2022-08-31T08:44:10.047Z,99160.40
2022-08-31T08:45:17.388Z,99156.73
2022-08-31T08:46:35.132Z,99158.95
2022-08-31T08:47:39.536Z,99156.65
2022-08-31T08:48:47.822Z,99159.00
2022-08-31T08:50:05.321Z,99162.02
2022-08-31T08:51:14.945Z,99162.35
2022-08-31T08:52:37.308Z,99163.48
2022-08-31T08:53:43.510Z,99164.67
2022-08-31T08:55:03.393Z,99164.48
2022-08-31T08:56:29.599Z,99161.92
2022-08-31T08:57:32.873Z,99160.67
2022-08-31T08:58:36.037Z,99156.13
2022-08-31T08:59:37.793Z,99153.76
2022-08-31T09:00:41.963Z,99149.71
2022-08-31T09:01:47.897Z,99157.45
2022-08-31T09:03:01.886Z,99150.08
2022-08-31T09:04:25.241Z,99153.35
2022-08-31T09:06:10.701Z,99157.35
2022-08-31T09:07:30.835Z,99151.54
2022-08-31T09:08:58.980Z,99148.21
2022-08-31T09:10:14.544Z,99146.74
2022-08-31T09:52:46.578Z,99146.50
2022-08-31T09:54:07.079Z,99149.54
2022-08-31T09:55:14.496Z,99153.24
2022-08-31T09:56:22.976Z,99151.29
2022-08-31T09:57:43.867Z,99149.66
2022-08-31T09:58:54.157Z,99150.45
2022-08-31T09:59:56.330Z,99150.02
2022-08-31T10:01:12.838Z,99148.44
2022-08-31T10:02:26.639Z,99142.66
2022-08-31T10:03:30.997Z,99146.56
2022-08-31T10:04:36.790Z,99140.42
2022-08-31T10:05:43.445Z,99142.02
2022-08-31T10:06:56.836Z,99145.67
2022-08-31T10:08:07.228Z,99144.21
2022-08-31T10:09:23.933Z,99145.68
2022-08-31T10:10:35.771Z,99141.41
2022-08-31T10:11:39.824Z,99141.94
2022-08-31T10:13:07.353Z,99136.33
2022-08-31T10:14:27.816Z,99132.68
2022-08-31T10:16:00.167Z,99134.52
2022-08-31T10:17:12.337Z,99130.42
2022-08-31T10:18:35.690Z,99130.65
2022-08-31T10:19:57.953Z,99127.80
2022-08-31T10:21:08.424Z,99131.91
2022-08-31T10:22:25.662Z,99133.81
2022-08-31T10:23:54.216Z,99136.85
2022-08-31T10:25:21.507Z,99136.89
2022-08-31T10:26:36.862Z,99136.46
2022-08-31T10:27:48.970Z,99134.80
2022-08-31T10:28:59.169Z,99135.63
2022-08-31T10:30:27.982Z,99136.06
2022-08-31T10:31:48.377Z,99134.48
2022-08-31T10:33:01.488Z,99132.64
2022-08-31T10:34:32.953Z,99133.86
2022-08-31T10:35:54.711Z,99134.06
2022-08-31T10:37:08.007Z,99132.98
2022-08-31T10:38:24.384Z,99134.88
2022-08-31T10:39:37.624Z,99136.72
2022-08-31T10:40:50.559Z,99133.81
2022-08-31T10:41:52.888Z,99133.23
2022-08-31T10:43:23.819Z,99132.06
2022-08-31T10:44:56.161Z,99130.65
2022-08-31T10:45:58.009Z,99133.58
2022-08-31T10:47:02.653Z,99133.95
2022-08-31T10:48:05.002Z,99138.42
2022-08-31T10:49:07.329Z,99137.54
2022-08-31T10:50:13.833Z,99138.85
2022-08-31T10:51:48.282Z,99139.40
2022-08-31T10:53:02.480Z,99139.59
2022-08-31T10:54:28.723Z,99137.07
2022-08-31T10:55:51.309Z,99139.02
2022-08-31T10:57:32.014Z,99134.79
2022-08-31T10:58:50.788Z,99135.66
2022-08-31T11:00:07.422Z,99135.61
2022-08-31T11:01:23.559Z,99134.08
2022-08-31T11:02:43.062Z,99133.27
2022-08-31T11:04:02.649Z,99133.37
2022-08-31T11:05:32.569Z,99135.08
2022-08-31T11:07:04.536Z,99129.82
2022-08-31T11:08:41.445Z,99131.19
2022-08-31T11:09:57.995Z,99132.38
2022-08-31T11:11:01.642Z,99133.61
2022-08-31T11:12:18.419Z,99128.86
2022-08-31T11:13:53.861Z,99130.70
2022-08-31T11:15:22.467Z,99127.58
2022-08-31T11:16:43.755Z,99124.87
2022-08-31T11:17:55.449Z,99116.46
2022-08-31T11:19:15.942Z,99109.30
2022-08-31T11:20:43.906Z,99106.99
2022-08-31T11:22:19.468Z,99105.28
2022-08-31T11:23:55.801Z,99104.25
2022-08-31T11:25:28.235Z,99098.84
2022-08-31T11:26:41.196Z,99096.02
2022-08-31T11:28:10.339Z,99093.11
2022-08-31T11:29:28.901Z,99095.38
2022-08-31T11:30:41.782Z,99094.29
2022-08-31T11:31:44.984Z,99091.25
2022-08-31T11:32:55.632Z,99098.44
2022-08-31T11:34:25.594Z,99092.71
2022-08-31T11:36:07.091Z,99094.08
2022-08-31T11:37:09.771Z,99091.42
2022-08-31T11:38:39.994Z,99090.98
2022-08-31T11:39:46.075Z,99088.49
2022-08-31T11:41:00.312Z,99091.08
2022-08-31T11:42:26.743Z,99092.81
2022-08-31T11:43:31.221Z,99092.34
2022-08-31T11:44:34.356Z,99087.86
2022-08-31T11:45:38.736Z,99089.70
2022-08-31T11:46:45.617Z,99091.71
2022-08-31T11:47:51.974Z,99088.88
2022-08-31T11:48:56.456Z,99087.23
2022-08-31T11:50:09.649Z,99090.87
2022-08-31T11:51:15.283Z,99086.41
2022-08-31T11:52:43.486Z,99086.14
2022-08-31T11:53:49.341Z,99087.29
2022-08-31T11:54:51.406Z,99083.14
2022-08-31T11:56:00.326Z,99082.54
2022-08-31T11:57:03.308Z,99080.64
2022-08-31T11:58:20.178Z,99074.38
2022-08-31T11:59:35.101Z,99070.95
2022-08-31T12:00:52.471Z,99070.45
2022-08-31T12:01:56.541Z,99069.02
2022-08-31T12:03:04.630Z,99068.67
2022-08-31T12:04:47.547Z,99063.84
2022-08-31T12:05:58.026Z,99060.32
2022-08-31T12:07:06.463Z,99061.34
2022-08-31T12:08:15.286Z,99064.92
2022-08-31T12:09:22.989Z,99065.29
2022-08-31T12:10:59.834Z,99064.79
2022-08-31T12:12:31.385Z,99067.13
2022-08-31T12:13:49.537Z,99067.92
2022-08-31T12:14:57.497Z,99074.94
2022-08-31T12:16:30.063Z,99072.25
2022-08-31T12:17:47.055Z,99069.82
2022-08-31T12:19:06.837Z,99069.23
2022-08-31T12:20:55.792Z,99060.63
2022-08-31T12:22:26.927Z,99059.61
2022-08-31T12:23:48.079Z,99066.73
2022-08-31T12:25:08.565Z,99065.58
2022-08-31T12:26:28.807Z,99065.75
2022-08-31T12:27:56.197Z,99062.67
2022-08-31T12:29:21.510Z,99061.96
2022-08-31T12:30:26.537Z,99058.66
2022-08-31T12:31:28.340Z,99062.63
2022-08-31T12:32:37.569Z,99064.80
2022-08-31T12:33:54.132Z,99065.36
2022-08-31T12:34:55.734Z,99062.09
2022-08-31T12:36:17.637Z,99064.24
2022-08-31T12:37:24.127Z,99061.09
2022-08-31T12:38:30.445Z,99062.45
2022-08-31T12:39:32.610Z,99064.75
2022-08-31T12:41:09.541Z,99060.55
2022-08-31T12:42:11.829Z,99060.33
2022-08-31T12:43:24.252Z,99060.88
2022-08-31T12:44:32.677Z,99061.23
2022-08-31T12:45:55.370Z,99059.60
2022-08-31T12:47:06.831Z,99057.54
2022-08-31T12:48:30.606Z,99054.04
2022-08-31T12:49:52.761Z,99053.34
2022-08-31T12:51:23.901Z,99050.62
2022-08-31T12:53:02.830Z,99050.73
2022-08-31T12:54:27.789Z,99053.41
2022-08-31T12:55:46.110Z,99055.48
2022-08-31T12:57:27.157Z,99052.17
2022-08-31T12:58:53.765Z,99050.85
2022-08-31T13:00:08.255Z,99055.50
2022-08-31T13:01:23.221Z,99051.64
2022-08-31T13:02:26.486Z,99053.67
2022-08-31T13:03:30.713Z,99055.64
2022-08-31T13:04:33.501Z,99055.80
2022-08-31T13:05:38.802Z,99058.19
2022-08-31T13:06:44.916Z,99060.91
2022-08-31T13:07:47.373Z,99056.41
2022-08-31T13:08:51.412Z,99056.60
2022-08-31T13:10:16.123Z,99055.48
2022-08-31T13:11:33.101Z,99054.78
2022-08-31T13:12:54.075Z,99054.21
2022-08-31T13:14:10.674Z,99060.30
2022-08-31T13:15:24.500Z,99052.78
2022-08-31T13:16:27.429Z,99058.06
2022-08-31T13:17:39.547Z,99055.08
2022-08-31T13:18:41.770Z,99053.21
2022-08-31T13:19:57.075Z,99053.32
2022-08-31T13:21:05.853Z,99048.94
2022-08-31T13:22:16.882Z,99045.00
2022-08-31T13:23:32.167Z,99048.02
2022-08-31T13:24:41.997Z,99045.95
2022-08-31T13:26:01.638Z,99052.12
2022-08-31T13:27:05.245Z,99048.23
2022-08-31T13:28:22.173Z,99053.48
2022-08-31T13:29:23.930Z,99055.30
2022-08-31T13:30:25.941Z,99056.27
2022-08-31T13:31:35.315Z,99056.98
2022-08-31T13:32:37.054Z,99053.80
2022-08-31T13:33:40.469Z,99057.33
2022-08-31T13:34:42.502Z,99056.02
2022-08-31T13:35:49.705Z,99054.95
2022-08-31T13:36:58.417Z,99048.94
2022-08-31T13:38:04.891Z,99050.41
2022-08-31T13:39:27.310Z,99047.74
2022-08-31T13:40:29.366Z,99051.55
2022-08-31T13:41:37.426Z,99042.86
2022-08-31T13:42:45.596Z,99048.30
2022-08-31T13:43:58.801Z,99044.33
2022-08-31T13:45:09.129Z,99043.80
2022-08-31T13:46:11.175Z,99047.77
2022-08-31T13:47:23.551Z,99047.67
2022-08-31T13:48:35.198Z,99047.41
2022-08-31T13:49:41.690Z,99046.80
2022-08-31T13:50:57.933Z,99051.81
2022-08-31T13:52:00.501Z,99048.30
2022-08-31T13:54:32.783Z,99048.23
2022-08-31T13:55:37.018Z,99047.49
2022-08-31T13:56:54.786Z,99045.67
2022-08-31T13:58:03.469Z,99041.37
2022-08-31T13:59:28.041Z,99040.59
2022-08-31T14:00:35.581Z,99036.16
2022-08-31T14:01:39.631Z,99039.73
2022-08-31T14:02:41.513Z,99042.89
2022-08-31T14:03:59.193Z,99040.94
2022-08-31T14:05:05.089Z,99037.69
2022-08-31T14:06:26.425Z,99039.11
2022-08-31T14:07:31.010Z,99038.14
2022-08-31T14:08:33.020Z,99038.09
2022-08-31T14:09:34.797Z,99041.39
2022-08-31T14:10:43.009Z,99038.65
2022-08-31T14:11:53.693Z,99041.96
2022-08-31T14:13:18.252Z,99039.48
2022-08-31T14:14:29.638Z,99039.52
2022-08-31T14:15:36.129Z,99043.42
2022-08-31T14:16:43.700Z,99044.73
2022-08-31T14:19:43.728Z,99043.64
2022-08-31T14:21:21.126Z,99043.35
2022-08-31T14:22:34.772Z,99043.77
2022-08-31T14:23:41.452Z,99044.30
2022-08-31T14:24:44.050Z,99041.91